Calumet, IA (51009)

12:08 PM CDT del 24 Maggio 2015 (GMT -0500)
Cherokee Municipal | | Change Station
CLOSE
Current Station
Aeroporto
Location: Cherokee,
Altitudine: 1227 ft
Stazioni meteo nelle vicinanze

Alt. 1227 ft 42.73 °N, 95.56 °W | Updated 13 minutes ago

Coperto
Coperto
60 °F
Sembra 60 °F
N
8
Vento Variabile Vento da Est

Oggi
Massima -- | Minima -- °F
--% Possibilità di precip.
Ieri
Massima -- | Minima -- °F
Precip. -- in
5:51 AM 8:47 PM
Luna crescente, 40% visible
Pressione 29.86 in
Visibilità 2.5 miglia
Nuvole Molto nuvoloso 1000 ft
Coperto 1300 ft
Punto di rugiada 60 °F
Umidità 100%
Piovosità 0.21 in
Spessore del manto nevoso Non disponibile.
Raggi UV 3 fuori da 12
Polline 2.90 fuori da 12
Qualità dell'aria Non disponibile.
Flu Activity Sporadic
METAR KCKP 241655Z AUTO 09007KT 2 1/2SM BR BKN010 OVC013 16/16 A2986 RMK AO2 T01580158

More Conditions Fewer Conditions

Pressione 29.86 in
Visibilità 2.5 miglia
Nuvole Molto nuvoloso 1000 ft
Coperto 1300 ft
Punto di rugiada 60 °F
Umidità 100%
Piovosità 0.21 in
Spessore del manto nevoso Non disponibile.
Raggi UV 3 fuori da 12
Polline 2.90 fuori da 12
Qualità dell'aria Non disponibile.
Flu Activity Sporadic
METAR KCKP 241655Z AUTO 09007KT 2 1/2SM BR BKN010 OVC013 16/16 A2986 RMK AO2 T01580158

More Conditions Fewer Conditions

10-Day Weather Forecast

Almanac

Astronomia

May. 24, 2015 Alba Tramonto
Ora attuale
Crepuscolo civile
Crepuscolo nautico
Crepuscolo astronomico
Luna
Estensione della luce visibile
Lunghezza del giorno
Tomorrow will be .
, % of the Moon is Illuminated

Gli estremi di oggi

State Highs State Lows

Community

WunderPhotos

Upload Photos

1,823,794 foto caricate!

WunderBlogs® & News

Nearby

Qualità dell'aria

  Qualità dell'aria Indice AQ Inquinante
Not available.

Profondità neve

Stazione Profondità Altitudine

Attività sismica

Città  Distanza Mag. Data & Ora
Minimo Magnitudo Mostrato è 2.5.

Temperature delle acque costiere

Località Temperatura

Stations

Stazioni meteo nelle vicinanze

Ubicazione della stazione Temp. Raffreddamento del vento Punto di rugiada Umidità Vento Precip. Alt. Aggiornato Tipo